Time;durP1;ratioP1;P1;durP2;ratioP2;P2;SDS_P1;SDS_P2;PMS_P1;PMS_P2;Temp;Humidity;BMP_temperature;BMP_pressure;BME280_temperature;BME280_humidity;BME280_pressure;Samples;Min_cycle;Max_cycle;Signal;HPM_P1;HPM_P2
2022/12/15 00:39:58;;;;;;;1.90;1.70;;;;;;;-141.59;100.00;61776.25;5050510;28;20216;-84
2022/12/15 00:42:27;;;;;;;1.87;1.50;;;;;;;-141.59;100.00;61776.25;5065043;28;20198;-85
2022/12/15 00:44:56;;;;;;;2.10;1.50;;;;;;;-141.59;100.00;61776.25;5044869;28;20204;-85
2022/12/15 00:47:22;;;;;;;2.07;1.33;;;;;;;-141.59;100.00;61776.25;5049997;28;20227;-85
2022/12/15 01:20:17;;;;;;;2.77;1.30;;;;;;;-141.59;100.00;61776.25;5047847;28;20380;-85
2022/12/15 01:22:45;;;;;;;1.30;1.20;;;;;;;-141.59;100.00;61776.25;5050451;28;20211;-85
2022/12/15 01:25:12;;;;;;;1.63;1.10;;;;;;;-141.59;100.00;61776.25;5048546;28;20190;-84
2022/12/15 01:27:40;;;;;;;1.53;1.10;;;;;;;-141.59;100.00;61776.25;5067505;28;20208;-85
2022/12/15 01:30:10;;;;;;;2.77;1.70;;;;;;;-141.59;100.00;61776.25;5066541;28;20303;-85
2022/12/15 01:32:39;;;;;;;1.70;1.60;;;;;;;-141.59;100.00;61776.25;5051048;28;20256;-85
2022/12/15 01:35:07;;;;;;;4.27;1.70;;;;;;;-141.59;100.00;61776.25;5057440;28;20208;-85
2022/12/15 01:37:35;;;;;;;1.87;1.53;;;;;;;-141.59;100.00;61776.25;5048339;28;20478;-85
2022/12/15 01:42:47;;;;;;;1.73;1.50;;;;;;;-141.59;100.00;61776.25;5042922;28;20251;-85
2022/12/15 01:45:44;;;;;;;2.90;1.70;;;;;;;-141.59;100.00;61776.25;5044562;28;20203;-85
2022/12/15 01:48:17;;;;;;;2.00;1.60;;;;;;;-141.59;100.00;61776.25;5049627;28;20226;-85
2022/12/15 01:50:51;;;;;;;1.60;1.40;;;;;;;-141.59;100.00;61776.25;5070466;28;20228;-85
2022/12/15 01:53:18;;;;;;;2.00;1.33;;;;;;;-141.59;100.00;61776.25;5058533;28;20217;-85
2022/12/15 01:55:47;;;;;;;2.67;1.53;;;;;;;-141.59;100.00;61776.25;5049849;28;20221;-85
2022/12/15 01:58:17;;;;;;;2.00;1.53;;;;;;;-141.59;100.00;61776.25;5048238;28;20202;-85
2022/12/15 02:00:44;;;;;;;1.83;1.40;;;;;;;-141.59;100.00;61776.25;5052155;28;20211;-84
2022/12/15 02:03:14;;;;;;;1.40;1.30;;;;;;;-141.59;100.00;61776.25;5053777;28;20208;-85
2022/12/15 02:05:42;;;;;;;4.10;1.67;;;;;;;-141.59;100.00;61776.25;5049921;28;20247;-85
2022/12/15 02:08:10;;;;;;;1.90;1.50;;;;;;;-141.59;100.00;61776.25;5044106;28;20296;-85
2022/12/15 02:10:53;;;;;;;1.97;1.50;;;;;;;-141.59;100.00;61776.25;5040743;28;20256;-85
2022/12/15 02:13:31;;;;;;;2.23;1.73;;;;;;;-141.59;100.00;61776.25;5049337;28;20224;-85
2022/12/15 02:16:06;;;;;;;5.30;2.30;;;;;;;-141.59;100.00;61776.25;5049734;28;20223;-84
2022/12/15 02:18:42;;;;;;;2.23;1.60;;;;;;;-141.59;100.00;61776.25;5050080;28;20283;-85
2022/12/15 02:21:17;;;;;;;2.40;1.47;;;;;;;-141.59;100.00;61776.25;5050906;28;20238;-85
2022/12/15 02:24:17;;;;;;;1.43;1.23;;;;;;;-141.59;100.00;61776.25;5049093;28;20209;-85
2022/12/15 02:27:19;;;;;;;1.30;1.10;;;;;;;-141.59;100.00;61776.25;5049710;28;20213;-85
2022/12/15 02:32:53;;;;;;;2.47;2.23;;;;;;;1.65;100.00;94824.63;5085268;27;20586;-84
2022/12/15 02:35:29;;;;;;;3.27;2.17;;;;;;;1.67;100.00;94842.03;5062889;28;20274;-84
2022/12/15 02:37:56;;;;;;;2.03;1.70;;;;;;;1.62;100.00;94833.03;5061149;28;20206;-84
2022/12/15 02:40:23;;;;;;;1.60;1.47;;;;;;;1.63;100.00;94835.47;5053487;28;20212;-84
2022/12/15 02:42:55;;;;;;;1.50;1.40;;;;;;;1.56;100.00;94839.19;5067268;28;20223;-84
2022/12/15 02:45:32;;;;;;;1.63;1.40;;;;;;;1.59;100.00;94860.06;5062880;28;20209;-84
2022/12/15 02:48:17;;;;;;;1.90;1.47;;;;;;;1.62;100.00;94859.63;5055804;28;20205;-84
2022/12/15 02:51:06;;;;;;;3.13;1.70;;;;;;;1.50;100.00;94851.50;5059117;28;20267;-84
2022/12/15 02:54:09;;;;;;;2.03;1.70;;;;;;;1.44;100.00;94858.50;5066903;28;20210;-84
2022/12/15 02:56:47;;;;;;;1.70;1.60;;;;;;;1.47;100.00;94852.72;5072917;28;20208;-84
2022/12/15 02:59:20;;;;;;;2.67;1.60;;;;;;;1.36;100.00;94850.72;5064392;28;20201;-84
2022/12/15 03:01:52;;;;;;;1.97;1.40;;;;;;;1.44;100.00;94863.81;5075469;28;20198;-84
2022/12/15 03:04:22;;;;;;;1.60;1.10;;;;;;;1.56;100.00;94863.94;5056376;28;20264;-84
2022/12/15 03:06:56;;;;;;;3.53;1.20;;;;;;;1.55;100.00;94861.50;5062141;28;20205;-84
2022/12/15 03:09:23;;;;;;;1.97;1.20;;;;;;;1.45;100.00;94854.78;5076333;28;20217;-85
2022/12/15 03:11:50;;;;;;;1.60;1.40;;;;;;;1.49;100.00;94863.97;5049553;28;20237;-85
2022/12/15 03:14:17;;;;;;;1.43;1.20;;;;;;;1.37;100.00;94852.34;5061738;28;20209;-84
2022/12/15 03:16:44;;;;;;;1.33;1.23;;;;;;;1.37;100.00;94857.66;5063811;28;20217;-84
2022/12/15 03:19:11;;;;;;;2.47;1.40;;;;;;;1.29;100.00;94847.28;5063152;28;20224;-84
2022/12/15 03:21:40;;;;;;;1.40;1.30;;;;;;;1.32;100.00;94857.50;5059536;28;20224;-85
2022/12/15 03:24:08;;;;;;;2.53;1.60;;;;;;;1.20;100.00;94851.19;5059879;28;20193;-85
2022/12/15 03:26:35;;;;;;;1.87;1.27;;;;;;;1.24;100.00;94856.91;5060135;28;20218;-84
2022/12/15 03:29:02;;;;;;;1.50;1.40;;;;;;;1.22;100.00;94850.97;5054213;28;20301;-85
2022/12/15 03:31:29;;;;;;;2.70;1.80;;;;;;;1.12;100.00;94843.44;5050147;28;20245;-85
2022/12/15 03:33:56;;;;;;;4.27;2.50;;;;;;;1.11;100.00;94847.09;5064505;28;20299;-83
2022/12/15 03:36:23;;;;;;;2.13;1.70;;;;;;;1.08;100.00;94844.88;5060449;28;20200;-84
2022/12/15 03:38:52;;;;;;;1.70;1.33;;;;;;;1.01;100.00;94825.50;5058561;28;20207;-84
2022/12/15 03:41:19;;;;;;;3.00;1.70;;;;;;;1.03;100.00;94842.84;5063087;28;20205;-84
2022/12/15 03:43:46;;;;;;;1.30;1.20;;;;;;;1.07;100.00;94843.25;5050951;28;20206;-84
2022/12/15 03:46:13;;;;;;;1.73;1.23;;;;;;;1.02;100.00;94832.44;5047549;28;20204;-84
2022/12/15 03:48:40;;;;;;;2.00;1.20;;;;;;;1.04;100.00;94841.00;5042848;28;20213;-84
2022/12/15 03:51:07;;;;;;;1.10;1.00;;;;;;;0.98;100.00;94825.91;5041571;28;20236;-84
2022/12/15 03:53:34;;;;;;;1.47;0.93;;;;;;;1.05;100.00;94832.00;5045505;28;20201;-84
2022/12/15 03:56:02;;;;;;;0.90;0.90;;;;;;;1.11;100.00;94845.28;5051103;28;20221;-84
2022/12/15 03:58:30;;;;;;;1.13;0.97;;;;;;;1.06;100.00;94844.28;5050364;28;20260;-84
2022/12/15 04:00:57;;;;;;;1.30;1.10;;;;;;;1.11;100.00;94857.75;5050926;28;20205;-84
2022/12/15 04:03:24;;;;;;;2.13;0.80;;;;;;;1.09;100.00;94852.66;5048447;28;20210;-84
2022/12/15 04:05:51;;;;;;;0.80;0.80;;;;;;;1.11;100.00;94877.16;5049358;28;20209;-84
2022/12/15 04:08:25;;;;;;;0.90;0.90;;;;;;;1.01;100.00;94862.69;5050584;28;20202;-84
2022/12/15 04:10:52;;;;;;;1.57;0.80;;;;;;;1.04;100.00;94870.22;5051738;28;20225;-85
2022/12/15 04:13:21;;;;;;;0.77;0.77;;;;;;;0.95;100.00;94874.94;5047762;28;20205;-84
2022/12/15 04:15:49;;;;;;;1.00;0.90;;;;;;;0.98;100.00;94879.03;5051565;28;20236;-85
2022/12/15 04:18:16;;;;;;;0.90;0.70;;;;;;;0.91;100.00;94876.41;5052627;28;20217;-85
2022/12/15 04:20:42;;;;;;;0.90;0.80;;;;;;;0.89;100.00;94874.97;5044477;28;20244;-84
2022/12/15 04:23:09;;;;;;;1.10;0.90;;;;;;;0.87;100.00;94872.50;5047481;28;20255;-84
2022/12/15 05:31:51;;;;;;;1.90;1.50;;;;;;;0.82;100.00;94880.28;5047066;28;20265;-83
2022/12/15 05:34:21;;;;;;;2.63;1.90;;;;;;;0.84;100.00;94880.09;5043600;28;20213;-84
2022/12/15 05:36:49;;;;;;;5.00;1.73;;;;;;;0.83;100.00;94892.56;5048277;28;20209;-84
2022/12/15 05:39:17;;;;;;;1.80;1.53;;;;;;;0.77;100.00;94883.56;5046838;28;20199;-84
2022/12/15 05:41:45;;;;;;;2.43;1.80;;;;;;;0.75;100.00;94887.47;5034726;28;20268;-84
2022/12/15 05:44:12;;;;;;;2.30;1.70;;;;;;;0.77;100.00;94871.31;5045547;28;20294;-85
2022/12/15 05:46:39;;;;;;;1.80;1.70;;;;;;;0.98;100.00;94876.38;5045256;28;20226;-84
2022/12/15 05:49:08;;;;;;;3.93;2.17;;;;;;;0.96;100.00;94876.59;5033739;28;20222;-85
2022/12/15 05:51:39;;;;;;;2.77;1.93;;;;;;;0.96;100.00;94884.56;5047655;28;20270;-84
2022/12/15 05:54:07;;;;;;;1.83;1.63;;;;;;;1.02;100.00;94885.59;5048007;28;20207;-84
2022/12/15 05:56:35;;;;;;;2.83;1.90;;;;;;;0.95;100.00;94876.78;5043712;28;20276;-87
2022/12/15 05:59:03;;;;;;;2.17;1.83;;;;;;;1.00;100.00;94895.59;5046163;28;20258;-87
2022/12/15 06:01:30;;;;;;;3.70;1.70;;;;;;;0.91;100.00;94888.88;5046078;28;20209;-87
2022/12/15 06:03:58;;;;;;;3.07;1.93;;;;;;;0.91;100.00;94880.91;5045902;28;20228;-87
2022/12/15 06:06:26;;;;;;;3.20;1.97;;;;;;;0.85;100.00;94871.91;5049757;28;20197;-87
2022/12/15 06:08:54;;;;;;;1.73;1.60;;;;;;;0.89;100.00;94886.41;5050173;28;20214;-87
2022/12/15 06:11:22;;;;;;;4.27;1.93;;;;;;;0.81;100.00;94877.84;5043721;28;20226;-85
2022/12/15 06:13:49;;;;;;;1.73;1.43;;;;;;;0.90;100.00;94882.75;5047239;28;20212;-85
2022/12/15 06:16:18;;;;;;;2.53;1.80;;;;;;;0.84;100.00;94872.13;5047610;28;20210;-85
2022/12/15 06:18:47;;;;;;;3.20;2.03;;;;;;;0.91;100.00;94883.56;5041571;28;20202;-84
2022/12/15 06:21:17;;;;;;;2.43;2.00;;;;;;;0.86;100.00;94875.38;5047441;28;20199;-84
2022/12/15 06:23:45;;;;;;;4.40;2.80;;;;;;;0.73;100.00;94861.09;5040367;28;20214;-85
2022/12/15 06:26:15;;;;;;;3.63;2.73;;;;;;;0.79;100.00;94882.53;5046098;28;20202;-85
2022/12/15 06:28:42;;;;;;;6.97;3.93;;;;;;;0.72;100.00;94880.72;5041903;28;20202;-84
2022/12/15 06:31:11;;;;;;;5.10;3.63;;;;;;;0.70;100.00;94880.09;5037711;28;20247;-85
2022/12/15 06:33:39;;;;;;;5.33;3.80;;;;;;;0.80;100.00;94882.34;5043076;28;20208;-84
2022/12/15 06:36:08;;;;;;;6.20;4.30;;;;;;;0.81;100.00;94875.19;5045778;28;20205;-84
2022/12/15 06:38:36;;;;;;;7.90;3.90;;;;;;;0.74;100.00;94883.16;5042662;28;20206;-85
2022/12/15 06:41:08;;;;;;;3.67;2.70;;;;;;;0.77;100.00;94880.91;5045788;28;20200;-84
2022/12/15 06:43:37;;;;;;;4.47;3.20;;;;;;;0.89;100.00;94885.59;5033836;28;20226;-84
2022/12/15 06:46:05;;;;;;;4.57;3.60;;;;;;;0.77;100.00;94871.31;5043683;28;20198;-84
2022/12/15 06:48:32;;;;;;;4.53;2.90;;;;;;;0.82;100.00;94877.63;5046290;28;20220;-85
2022/12/15 06:51:03;;;;;;;9.43;3.23;;;;;;;0.82;100.00;94874.16;5044573;28;20235;-84
2022/12/15 06:53:31;;;;;;;4.00;2.97;;;;;;;0.87;100.00;94863.72;5041451;28;20302;-84
2022/12/15 06:56:01;;;;;;;6.50;4.33;;;;;;;0.81;100.00;94859.25;5042219;28;20206;-84
2022/12/15 06:58:29;;;;;;;8.03;4.67;;;;;;;0.86;100.00;94870.88;5046398;28;20204;-84
2022/12/15 07:00:57;;;;;;;4.83;3.00;;;;;;;0.74;100.00;94849.44;5043694;28;20201;-84
2022/12/15 07:03:25;;;;;;;6.13;3.37;;;;;;;0.74;100.00;94845.97;5045493;28;20202;-84
2022/12/15 07:06:02;;;;;;;4.83;2.77;;;;;;;0.70;100.00;94850.06;5043160;28;20209;-84
2022/12/15 07:08:29;;;;;;;3.27;2.50;;;;;;;0.72;100.00;94853.31;5061170;28;20290;-84
2022/12/15 07:10:56;;;;;;;3.73;2.30;;;;;;;0.74;100.00;94853.94;5044236;28;20309;-84
2022/12/15 07:13:23;;;;;;;2.77;2.07;;;;;;;0.73;100.00;94866.41;5046959;28;20226;-84
2022/12/15 07:15:50;;;;;;;2.80;2.23;;;;;;;0.66;100.00;94859.47;5049263;28;20246;-85
2022/12/15 07:18:19;;;;;;;3.23;2.80;;;;;;;0.79;100.00;94885.19;5048671;28;20252;-84
2022/12/15 07:20:46;;;;;;;5.17;2.90;;;;;;;0.74;100.00;94881.31;5050616;28;20277;-84
2022/12/15 07:23:14;;;;;;;3.63;2.80;;;;;;;0.71;100.00;94905.63;5053378;28;20197;-84
2022/12/15 07:25:41;;;;;;;4.40;3.27;;;;;;;0.64;100.00;94894.19;5041422;28;20204;-84
2022/12/15 07:28:09;;;;;;;5.90;3.67;;;;;;;0.72;100.00;94909.94;5047703;28;20222;-84
2022/12/15 07:30:36;;;;;;;5.53;3.87;;;;;;;0.76;100.00;94913.00;5051257;28;20190;-84
2022/12/15 07:33:04;;;;;;;8.13;5.20;;;;;;;0.81;100.00;94913.19;5045450;28;20229;-84
2022/12/15 07:35:32;;;;;;;6.07;3.50;;;;;;;0.83;100.00;94923.63;5048369;28;20203;-84
2022/12/15 07:38:00;;;;;;;6.30;4.43;;;;;;;0.79;100.00;94923.19;5048477;28;20271;-84
2022/12/15 07:40:27;;;;;;;7.07;4.63;;;;;;;0.84;100.00;94936.72;5048498;28;20208;-84
2022/12/15 07:42:54;;;;;;;8.00;4.40;;;;;;;0.83;100.00;94929.75;5049174;28;20253;-84
2022/12/15 07:45:21;;;;;;;8.40;4.20;;;;;;;0.89;100.00;94944.06;5052514;28;20198;-84
2022/12/15 07:47:50;;;;;;;4.23;3.43;;;;;;;0.89;100.00;94936.09;5049114;28;20248;-84
2022/12/15 07:50:17;;;;;;;4.40;3.43;;;;;;;0.90;100.00;94940.38;5043802;28;20209;-84
2022/12/15 07:52:46;;;;;;;6.07;4.50;;;;;;;0.89;100.00;94944.06;5044745;28;20265;-85
2022/12/15 07:55:15;;;;;;;6.53;4.70;;;;;;;0.97;100.00;94962.44;5050378;28;20242;-84
2022/12/15 07:57:42;;;;;;;9.97;5.70;;;;;;;0.93;100.00;94955.94;5052668;28;20244;-84
2022/12/15 08:00:10;;;;;;;7.57;5.67;;;;;;;0.91;100.00;94963.28;5049356;28;20209;-84
2022/12/15 08:02:41;;;;;;;4.90;3.67;;;;;;;0.95;100.00;94960.00;5044089;28;20239;-84
2022/12/15 08:05:08;;;;;;;6.23;4.60;;;;;;;0.86;100.00;94939.97;5042116;28;20229;-84
2022/12/15 08:07:35;;;;;;;6.90;4.67;;;;;;;0.88;100.00;94937.09;5048551;28;20215;-84
2022/12/15 08:10:07;;;;;;;7.03;4.30;;;;;;;0.88;100.00;94929.13;5039255;28;20231;-84
2022/12/15 08:12:34;;;;;;;4.97;3.90;;;;;;;1.00;100.00;94951.41;5065124;28;20241;-84
2022/12/15 08:15:02;;;;;;;6.00;4.50;;;;;;;0.95;100.00;94945.88;5048170;28;20208;-84
2022/12/15 08:17:29;;;;;;;6.57;4.73;;;;;;;1.00;100.00;94940.78;5052125;28;20209;-84
2022/12/15 08:19:57;;;;;;;4.80;3.93;;;;;;;1.11;100.00;94940.16;5050876;28;20209;-84
2022/12/15 08:22:24;;;;;;;10.47;5.70;;;;;;;1.16;100.00;94943.03;5047304;28;20201;-84
2022/12/15 08:24:51;;;;;;;8.57;5.43;;;;;;;1.14;100.00;94943.22;5044135;28;20205;-84
2022/12/15 08:27:20;;;;;;;5.70;4.23;;;;;;;1.18;100.00;94940.16;5047934;28;20213;-83
2022/12/15 08:29:47;;;;;;;4.70;3.73;;;;;;;1.26;100.00;94951.41;5048705;28;20221;-84
2022/12/15 08:32:14;;;;;;;10.10;5.77;;;;;;;1.22;100.00;94936.88;5038898;28;20266;-83
2022/12/15 08:34:42;;;;;;;8.47;6.20;;;;;;;1.27;100.00;94941.59;5044470;28;20212;-83
2022/12/15 08:37:09;;;;;;;4.40;3.60;;;;;;;1.34;100.00;94951.19;5046350;28;20293;-84
2022/12/15 08:39:37;;;;;;;7.40;4.90;;;;;;;1.40;100.00;94942.38;5046336;28;20201;-84
2022/12/15 08:42:05;;;;;;;10.30;6.10;;;;;;;1.42;100.00;94950.97;5045335;28;20199;-84
2022/12/15 08:44:33;;;;;;;10.53;5.43;;;;;;;1.43;100.00;94947.28;5050016;28;20216;-83
2022/12/15 08:47:00;;;;;;;5.50;4.00;;;;;;;1.44;100.00;94942.78;5050713;28;20248;-83
2022/12/15 08:49:27;;;;;;;8.30;5.90;;;;;;;1.55;100.00;94949.28;5039300;28;20228;-84
2022/12/15 08:51:55;;;;;;;11.30;7.00;;;;;;;1.55;100.00;94943.94;5045504;28;20238;-83
2022/12/15 08:54:22;;;;;;;8.77;6.70;;;;;;;1.61;100.00;94951.13;5045143;28;20209;-83
2022/12/15 08:56:49;;;;;;;7.57;6.17;;;;;;;1.62;100.00;94950.06;5050823;28;20221;-83
2022/12/15 08:59:16;;;;;;;7.20;5.23;;;;;;;1.70;100.00;94950.66;5049674;28;20205;-83
2022/12/15 09:01:45;;;;;;;8.77;5.93;;;;;;;1.69;100.00;94946.41;5047739;28;20213;-83
2022/12/15 09:04:12;;;;;;;8.50;5.40;;;;;;;1.80;100.00;94955.53;5051152;28;20205;-83
2022/12/15 09:06:39;;;;;;;8.20;5.57;;;;;;;1.84;100.00;94972.75;5043548;28;20230;-83
2022/12/15 09:09:08;;;;;;;8.97;6.13;;;;;;;1.87;100.00;94969.66;5038093;28;20203;-84
2022/12/15 09:11:35;;;;;;;6.67;5.23;;;;;;;1.91;100.00;94968.22;5043870;28;20312;-83
2022/12/15 09:14:03;;;;;;;11.17;5.97;;;;;;;1.92;100.00;94956.53;5045840;28;20223;-83
2022/12/15 09:16:30;;;;;;;7.63;5.50;;;;;;;1.97;100.00;94962.03;5050880;28;20206;-83
2022/12/15 09:19:00;;;;;;;6.17;4.77;;;;;;;2.04;100.00;94954.84;5041069;28;20214;-83
2022/12/15 09:21:30;;;;;;;7.30;5.13;;;;;;;2.02;100.00;94948.94;5067366;28;20225;-83
2022/12/15 09:24:00;;;;;;;6.80;5.00;;;;;;;2.14;100.00;94949.88;5034735;28;20203;-83
2022/12/15 09:26:29;;;;;;;7.90;5.87;;;;;;;2.19;100.00;94947.41;5042904;28;20202;-83
2022/12/15 09:28:56;;;;;;;6.77;5.37;;;;;;;2.28;100.00;94948.81;5043050;28;20214;-83
2022/12/15 09:31:27;;;;;;;7.87;5.20;;;;;;;2.31;100.00;94944.06;5048399;28;20237;-83
2022/12/15 09:33:56;;;;;;;11.53;6.87;;;;;;;2.35;100.00;94955.94;5051229;28;20218;-83
2022/12/15 09:36:25;;;;;;;15.30;7.87;;;;;;;2.23;100.00;94945.94;5050106;28;20217;-83
2022/12/15 09:38:52;;;;;;;14.57;8.73;;;;;;;2.35;100.00;94961.25;5044854;28;20217;-83
2022/12/15 09:41:24;;;;;;;13.37;9.43;;;;;;;2.30;100.00;94953.09;5048713;28;20195;-83
2022/12/15 09:43:56;;;;;;;17.30;10.23;;;;;;;2.43;100.00;94966.34;5046777;28;20217;-83
2022/12/15 09:46:30;;;;;;;15.57;8.70;;;;;;;2.47;100.00;94964.88;5041504;28;20213;-83
2022/12/15 09:49:01;;;;;;;10.70;7.40;;;;;;;2.51;100.00;94971.41;5047920;28;20281;-83
2022/12/15 09:51:39;;;;;;;9.57;6.77;;;;;;;2.51;100.00;94966.09;5047050;28;20228;-83
2022/12/15 09:54:10;;;;;;;9.90;6.67;;;;;;;2.64;100.00;94972.13;5038720;28;20221;-83
2022/12/15 09:56:43;;;;;;;12.00;7.33;;;;;;;2.61;100.00;94956.59;5048475;28;20257;-83
2022/12/15 09:59:25;;;;;;;10.03;6.47;;;;;;;2.67;100.00;94946.91;5049373;28;20209;-83
2022/12/15 10:02:01;;;;;;;8.30;5.40;;;;;;;2.77;100.00;94949.94;5041754;28;20213;-83
2022/12/15 10:04:40;;;;;;;9.37;5.70;;;;;;;2.86;100.00;94950.47;5043204;28;20350;-82
2022/12/15 10:07:18;;;;;;;8.40;5.80;;;;;;;2.90;100.00;94938.34;5046233;28;20201;-83
2022/12/15 10:09:45;;;;;;;10.10;5.60;;;;;;;2.99;100.00;94948.50;5036003;28;20209;-83
2022/12/15 10:12:18;;;;;;;10.53;6.87;;;;;;;2.96;100.00;94927.63;5046773;28;20210;-82
2022/12/15 10:14:54;;;;;;;9.17;7.00;;;;;;;3.11;100.00;94942.47;5049192;28;20222;-82
2022/12/15 10:17:25;;;;;;;9.53;6.60;;;;;;;3.15;100.00;94943.69;5049531;28;20252;-83
2022/12/15 10:19:59;;;;;;;11.27;7.00;;;;;;;3.16;100.00;94950.63;5042804;28;20207;-83
2022/12/15 10:22:32;;;;;;;8.70;6.57;;;;;;;3.12;100.00;94942.28;5048372;28;20207;-83
2022/12/15 10:25:02;;;;;;;9.97;6.80;;;;;;;3.12;100.00;94928.94;5050154;28;20248;-83
2022/12/15 10:27:44;;;;;;;12.90;6.33;;;;;;;3.19;100.00;94927.03;5048297;28;20211;-84
2022/12/15 10:30:12;;;;;;;8.27;5.93;;;;;;;3.26;100.00;94924.28;5042047;28;20229;-83
2022/12/15 10:32:49;;;;;;;11.13;6.60;;;;;;;3.32;100.00;94931.41;5044130;28;20230;-82
2022/12/15 10:35:18;;;;;;;7.83;6.27;;;;;;;3.36;100.00;94932.59;5032898;28;20198;-83
2022/12/15 10:37:46;;;;;;;10.50;6.57;;;;;;;3.36;100.00;94924.59;5041959;28;20213;-83
2022/12/15 10:40:19;;;;;;;9.97;5.70;;;;;;;3.42;100.00;94921.03;5038711;28;20214;-83
2022/12/15 10:42:48;;;;;;;9.33;6.03;;;;;;;3.47;100.00;94931.88;5034244;28;20203;-83
2022/12/15 10:45:36;;;;;;;9.63;6.40;;;;;;;3.61;100.00;94936.03;5040365;28;20199;-82
2022/12/15 10:48:05;;;;;;;8.53;6.10;;;;;;;3.62;100.00;94932.34;5041703;28;20211;-83
2022/12/15 10:50:34;;;;;;;8.17;6.57;;;;;;;3.62;100.00;94923.53;5048919;28;20233;-82
2022/12/15 10:53:08;;;;;;;8.77;5.90;;;;;;;3.61;100.00;94914.69;5048748;28;20229;-83
2022/12/15 10:55:39;;;;;;;12.77;6.97;;;;;;;3.54;100.00;94907.81;5041785;28;20213;-84
2022/12/15 10:58:17;;;;;;;9.60;6.53;;;;;;;3.54;100.00;94908.63;5050671;28;20256;-83
2022/12/15 11:00:45;;;;;;;12.70;7.10;;;;;;;3.57;100.00;94918.88;5051655;28;20318;-83
2022/12/15 11:03:22;;;;;;;11.00;6.67;;;;;;;3.49;100.00;94897.78;5049014;28;20202;-82
2022/12/15 11:05:53;;;;;;;13.40;7.43;;;;;;;3.55;100.00;94902.25;5039883;28;20208;-83
2022/12/15 11:08:23;;;;;;;12.10;7.87;;;;;;;3.58;100.00;94903.63;5043289;28;20201;-83
2022/12/15 11:13:38;;;;;;;15.63;7.47;;;;;;;3.60;100.00;94891.72;5043629;28;20226;-83
2022/12/15 11:16:15;;;;;;;14.83;7.53;;;;;;;3.64;100.00;94886.75;5047062;28;20210;-83
2022/12/15 11:18:48;;;;;;;15.57;7.93;;;;;;;3.63;100.00;94885.94;5049639;28;20212;-83
2022/12/15 11:21:22;;;;;;;12.97;7.40;;;;;;;3.61;100.00;94882.66;5049445;28;20437;-83
2022/12/15 11:23:59;;;;;;;14.87;7.80;;;;;;;3.58;100.00;94872.44;5065559;28;20194;-82
2022/12/15 11:26:35;;;;;;;12.33;7.13;;;;;;;3.61;100.00;94861.31;5051155;28;20206;-83
2022/12/15 11:29:20;;;;;;;9.00;7.20;;;;;;;3.63;100.00;94859.25;5039588;28;20208;-83
2022/12/15 11:31:49;;;;;;;12.90;7.40;;;;;;;3.61;100.00;94844.50;5047877;28;20230;-83
2022/12/15 11:34:19;;;;;;;13.47;8.30;;;;;;;3.69;100.00;94845.00;5043566;28;20225;-83
2022/12/15 11:37:06;;;;;;;11.43;7.07;;;;;;;3.70;100.00;94838.63;5048116;28;20206;-83
2022/12/15 11:39:49;;;;;;;10.87;7.67;;;;;;;3.69;100.00;94836.19;5055300;28;20211;-83
2022/12/15 11:42:25;;;;;;;9.97;7.20;;;;;;;3.71;100.00;94824.25;5042656;28;20209;-83
2022/12/15 11:45:02;;;;;;;10.53;7.23;;;;;;;3.74;100.00;94829.13;5042840;28;20217;-83
2022/12/15 11:47:41;;;;;;;11.23;6.80;;;;;;;3.70;100.00;94811.94;5042963;28;20397;-83
2022/12/15 11:50:29;;;;;;;10.07;6.60;;;;;;;3.76;100.00;94808.34;5042693;28;20212;-84
2022/12/15 11:53:17;;;;;;;10.40;7.40;;;;;;;3.77;100.00;94811.84;5049765;28;20206;-84
2022/12/15 11:55:53;;;;;;;10.90;7.83;;;;;;;3.68;100.00;94789.16;5037947;28;20218;-84
2022/12/15 11:58:49;;;;;;;14.33;8.43;;;;;;;3.78;100.00;94798.28;5053572;28;20205;-83
2022/12/15 12:01:29;;;;;;;11.47;7.53;;;;;;;3.92;100.00;94790.06;5042798;28;20194;-83
2022/12/15 12:04:07;;;;;;;13.03;8.80;;;;;;;3.95;100.00;94778.94;5060414;28;20199;-83
2022/12/15 12:06:43;;;;;;;14.53;8.20;;;;;;;3.98;100.00;94767.81;5059628;28;20206;-83
2022/12/15 12:09:39;;;;;;;10.83;7.17;;;;;;;3.99;100.00;94761.44;5058775;28;20282;-83
2022/12/15 12:12:18;;;;;;;10.40;7.03;;;;;;;4.12;100.00;94763.91;5043825;28;20241;-83
2022/12/15 12:15:01;;;;;;;7.90;5.97;;;;;;;4.09;100.00;94738.44;5041251;28;20219;-82
2022/12/15 12:17:40;;;;;;;8.73;6.50;;;;;;;4.22;100.00;94745.47;5042236;28;20202;-82
2022/12/15 12:20:17;;;;;;;7.57;5.77;;;;;;;4.21;100.00;94748.34;5047662;28;20210;-83
2022/12/15 12:23:01;;;;;;;7.40;5.73;;;;;;;4.20;100.00;94744.88;5046049;28;20352;-83
2022/12/15 12:25:33;;;;;;;8.20;6.20;;;;;;;4.14;100.00;94716.41;5046109;28;20205;-83
2022/12/15 12:28:06;;;;;;;9.37;6.53;;;;;;;4.18;100.00;94710.38;5050026;28;20344;-83
2022/12/15 12:30:40;;;;;;;10.20;7.20;;;;;;;4.20;100.00;94715.47;5047092;28;20217;-83
2022/12/15 12:33:18;;;;;;;10.10;6.00;;;;;;;4.23;100.00;94717.72;5044585;28;20276;-83
2022/12/15 12:35:50;;;;;;;10.87;8.00;;;;;;;4.19;100.00;94697.81;5041223;28;20198;-82
2022/12/15 12:38:23;;;;;;;8.57;6.60;;;;;;;4.20;100.00;94688.78;5050213;28;20279;-82
2022/12/15 12:41:00;;;;;;;8.77;5.97;;;;;;;4.19;100.00;94701.31;5042493;28;20198;-82
2022/12/15 12:43:32;;;;;;;8.70;6.33;;;;;;;4.15;100.00;94691.34;5036045;28;20198;-82
2022/12/15 12:46:03;;;;;;;7.53;6.10;;;;;;;4.21;100.00;94701.09;5052888;28;20226;-82
2022/12/15 12:48:36;;;;;;;7.43;5.80;;;;;;;4.22;100.00;94681.34;5047343;28;20381;-82
2022/12/15 12:51:20;;;;;;;9.83;6.43;;;;;;;4.26;100.00;94685.16;5038991;28;20213;-83
2022/12/15 12:53:47;;;;;;;8.93;6.33;;;;;;;4.28;100.00;94679.59;5043491;28;20320;-83
2022/12/15 12:56:33;;;;;;;9.83;6.07;;;;;;;4.25;100.00;94677.41;5047899;28;20198;-83
2022/12/15 12:59:07;;;;;;;7.40;5.87;;;;;;;4.25;100.00;94674.75;5047070;28;20317;-83
2022/12/15 13:01:36;;;;;;;10.13;6.40;;;;;;;4.22;100.00;94665.31;5035182;28;20298;-83
2022/12/15 13:04:09;;;;;;;8.77;6.10;;;;;;;4.24;100.00;94657.09;5043638;28;20190;-83
2022/12/15 13:06:57;;;;;;;8.50;6.40;;;;;;;4.21;100.00;94668.22;5044501;28;20199;-83
2022/12/15 13:09:36;;;;;;;9.10;6.40;;;;;;;4.15;100.00;94669.97;5040688;28;20225;-83
2022/12/15 13:12:06;;;;;;;8.40;6.53;;;;;;;4.12;100.00;94673.09;5042304;28;20205;-83
2022/12/15 13:14:44;;;;;;;11.33;7.30;;;;;;;4.11;100.00;94668.78;5049402;28;20228;-83
2022/12/15 13:17:29;;;;;;;8.47;6.70;;;;;;;4.08;100.00;94655.91;5042278;28;20217;-83
2022/12/15 13:20:22;;;;;;;11.07;7.87;;;;;;;4.04;100.00;94671.56;5056316;28;20203;-83
2022/12/15 13:22:51;;;;;;;12.33;7.30;;;;;;;4.12;100.00;94659.72;5043087;28;20294;-82
2022/12/15 13:25:35;;;;;;;10.27;7.10;;;;;;;4.06;100.00;94666.81;5050205;28;20277;-82
2022/12/15 13:28:18;;;;;;;11.17;7.53;;;;;;;4.03;100.00;94656.59;5046275;28;20214;-83
2022/12/15 13:31:21;;;;;;;12.57;7.30;;;;;;;4.02;100.00;94662.16;5044446;28;20261;-83
2022/12/15 13:34:01;;;;;;;11.20;7.53;;;;;;;3.99;100.00;94667.97;5045112;28;20236;-83
2022/12/15 13:36:55;;;;;;;11.73;7.73;;;;;;;3.98;100.00;94666.34;5061815;28;20233;-82
2022/12/15 13:39:47;;;;;;;11.67;8.13;;;;;;;4.01;100.00;94663.19;5048062;28;20221;-82
2022/12/15 13:42:33;;;;;;;10.77;7.50;;;;;;;3.96;100.00;94658.56;5045406;28;20230;-82
2022/12/15 13:45:31;;;;;;;11.67;7.73;;;;;;;4.02;100.00;94659.50;5038659;28;20190;-83
2022/12/15 13:48:01;;;;;;;10.80;7.80;;;;;;;4.00;100.00;94656.22;5038746;28;20257;-83
2022/12/15 13:50:38;;;;;;;12.53;7.97;;;;;;;3.99;100.00;94654.63;5057127;28;20214;-83
2022/12/15 13:53:16;;;;;;;10.47;7.43;;;;;;;4.00;100.00;94656.22;5040573;28;20211;-84
2022/12/15 13:55:53;;;;;;;13.33;7.60;;;;;;;3.97;100.00;94656.72;5047113;28;20222;-84
2022/12/15 13:58:23;;;;;;;14.37;8.83;;;;;;;3.96;100.00;94639.06;5049587;28;20202;-84
2022/12/15 14:00:52;;;;;;;11.17;7.80;;;;;;;3.95;100.00;94642.78;5043650;28;20231;-84
2022/12/15 14:03:21;;;;;;;10.10;7.73;;;;;;;3.93;100.00;94639.50;5048198;28;20424;-84
2022/12/15 14:05:51;;;;;;;10.23;7.30;;;;;;;3.94;100.00;94635.81;5040765;28;20214;-83
2022/12/15 14:08:20;;;;;;;10.03;7.40;;;;;;;3.94;100.00;94643.81;5038425;28;20202;-83
2022/12/15 14:10:51;;;;;;;11.90;7.60;;;;;;;3.97;100.00;94640.69;5048555;28;20224;-84
2022/12/15 14:13:23;;;;;;;12.80;7.50;;;;;;;4.00;100.00;94637.53;5048850;28;20206;-83
2022/12/15 14:15:54;;;;;;;10.30;7.50;;;;;;;3.94;100.00;94641.94;5039106;28;20215;-84